Merrill, Maine
Current Conditions -  °F | °C
As of 5:53 PM on Tuesday 27 Jan 2015 (Local Time) from KHUL Reporting Station
Light Snow Light Snow  
Wind Chill: -13°   Ceiling: 1900
Heat Index:   Visibility: 1mi
Dew Point:   Wind: 21mph
Humidity: 80%   Direction: 10°N
Pressure: 29.73"   Gusts: 29mph
Location:  46.2367°N, 68.3001°W
Report Text: KHUL 272253Z AUTO 01018G25KT 1SM -SN VV019 M14/M17 A2973 RMK AO2 PK WND 01026/2236 SLP081 P0000 T11391167
Loading
Personal Weather Stations






























Interactive Weather Map New forecast layout! Learn more

10-Day Weather Forecast

Advertisements
Track Severe Weather on mobile